Página principal
METAR-TAF:

METAR-TAF

Aeroportos :

Aeroporto de Gran Canária

Gran Canária, Espanha

latitude: 27-56N, longitude: 015-23W, altura: 23 m

Observação actual do tempo

O boletim foi feito há 33 minutos, às 14:30 UTC
Vento 21 kt de nor-nordeste
Temperatura 26°C
Humidade 61%
Pressão 1018 hPa
Visibilidade 10 km ou mais
Poucas nuvensa uma altura de 3500 ft

METAR: GCLP 201430Z 03021KT 9999 FEW035 26/18 Q1018 NOSIG

Hora: 16:03 (15:03 UTC)

Previsão

O boletim foi feito há 1 hora e 3 minutos, às 14:00 UTC
Previsão válida de 20 às 15 UTC a 21 às 15 UTC
Vento 20 kt de nor-nordeste
Visibilidade 10 km ou mais
Poucas nuvensa uma altura de 3500 ft

TAF: GCLP 201400Z 2015/2115 03020KT 9999 FEW035 TX25/2114Z TN20/2106Z

Observações e previsões do tempo de mais de 4000 aeroportos (mensagens METAR e TAF).

As estações disponíveis são os pontos amarelos e vermelhos sobre o mapa.

Mova o rato sobre o mapa para ver o nome da estação.

Depois clique no ponto para visualizar as observações e previsões meteorológicas.

Para alterar o mapa : clique nos botões verdes com uma cruz preta para aumentar o zoom; no botão verde com uma pitada de zoom; ou nas setas verdes para mapas adjacentes.


METAR-TAF: